createdAt,value
2022-08-05T00:00:46.487Z,25.10
2022-08-05T00:03:18.435Z,25.20
2022-08-05T00:06:06.487Z,25.10
2022-08-05T00:08:36.173Z,25.10
2022-08-05T00:11:20.652Z,25.10
2022-08-05T00:13:56.165Z,25.00
2022-08-05T00:16:36.475Z,25.00
2022-08-05T00:19:14.033Z,25.00
2022-08-05T00:21:54.079Z,25.00
2022-08-05T00:24:31.230Z,25.00
2022-08-05T00:26:59.715Z,25.00
2022-08-05T00:29:37.744Z,25.00
2022-08-05T00:32:15.015Z,25.00
2022-08-05T00:35:05.391Z,24.90
2022-08-05T00:37:51.254Z,24.90
2022-08-05T00:40:27.072Z,24.80
2022-08-05T00:42:58.845Z,24.80
2022-08-05T00:45:38.092Z,24.80
2022-08-05T00:48:10.106Z,24.90
2022-08-05T00:50:39.184Z,24.90
2022-08-05T00:54:00.276Z,24.90
2022-08-05T00:55:58.141Z,24.90
2022-08-05T00:58:27.252Z,24.80
2022-08-05T01:00:57.183Z,24.70
2022-08-05T01:03:30.853Z,24.70
2022-08-05T01:06:03.788Z,24.70
2022-08-05T01:08:43.038Z,24.60
2022-08-05T01:11:22.151Z,24.60
2022-08-05T01:14:01.236Z,24.50
2022-08-05T01:16:35.021Z,24.60
2022-08-05T01:19:17.366Z,24.60
2022-08-05T01:22:02.902Z,24.60
2022-08-05T01:25:01.108Z,24.60
2022-08-05T01:28:00.573Z,24.50
2022-08-05T01:30:33.722Z,24.50
2022-08-05T01:33:06.384Z,24.50
2022-08-05T01:35:50.836Z,24.30
2022-08-05T01:38:24.670Z,23.80
2022-08-05T01:40:56.821Z,23.40
2022-08-05T01:43:28.962Z,23.30
2022-08-05T01:46:07.223Z,23.30
2022-08-05T01:48:49.620Z,23.40
2022-08-05T01:51:20.169Z,23.40
2022-08-05T01:53:57.214Z,23.30
2022-08-05T01:58:13.575Z,23.30
2022-08-05T01:59:22.857Z,23.30
2022-08-05T02:01:54.706Z,23.20
2022-08-05T02:04:24.943Z,23.20
2022-08-05T02:07:10.884Z,23.20
2022-08-05T02:09:50.296Z,23.20
2022-08-05T02:12:26.835Z,23.10
2022-08-05T02:15:06.304Z,23.10
2022-08-05T02:18:28.766Z,23.00
2022-08-05T02:20:46.995Z,23.10
2022-08-05T02:23:18.977Z,23.10
2022-08-05T02:25:55.108Z,23.10
2022-08-05T02:28:36.426Z,23.10
2022-08-05T02:31:14.751Z,23.10
2022-08-05T02:33:57.549Z,23.10
2022-08-05T02:36:31.348Z,23.10
2022-08-05T02:39:01.196Z,23.00
2022-08-05T02:41:37.546Z,23.10
2022-08-05T02:44:19.208Z,23.10
2022-08-05T02:46:59.787Z,23.10
2022-08-05T02:49:36.723Z,23.20
2022-08-05T02:52:09.426Z,23.20
2022-08-05T02:54:41.616Z,23.10
2022-08-05T02:58:11.823Z,23.00
2022-08-05T03:00:02.676Z,23.20
2022-08-05T03:02:37.886Z,23.20
2022-08-05T03:05:08.761Z,23.00
2022-08-05T03:08:07.130Z,23.00
2022-08-05T03:10:35.581Z,22.60
2022-08-05T03:13:52.120Z,22.70
2022-08-05T03:16:18.623Z,22.80
2022-08-05T03:18:52.471Z,22.70
2022-08-05T03:21:20.911Z,22.60
2022-08-05T03:23:52.152Z,22.60
2022-08-05T03:26:32.075Z,22.50
2022-08-05T03:29:01.051Z,22.60
2022-08-05T03:31:56.591Z,22.60
2022-08-05T03:34:24.491Z,22.70
2022-08-05T03:40:24.163Z,22.80
2022-08-05T03:43:01.307Z,22.90
2022-08-05T03:45:31.585Z,22.90
2022-08-05T03:48:35.601Z,22.80
2022-08-05T03:52:38.145Z,22.70
2022-08-05T03:55:54.144Z,22.60
2022-08-05T03:57:16.453Z,22.50
2022-08-05T03:59:54.658Z,22.30
2022-08-05T04:02:38.666Z,22.30
2022-08-05T04:05:14.376Z,22.40
2022-08-05T04:07:57.574Z,22.10
2022-08-05T04:10:30.812Z,22.00
2022-08-05T04:13:04.269Z,21.90
2022-08-05T04:15:36.188Z,21.80
2022-08-05T04:18:09.319Z,21.90
2022-08-05T04:20:37.844Z,21.80
2022-08-05T04:23:16.425Z,21.60
2022-08-05T04:26:00.302Z,21.40
2022-08-05T04:28:30.863Z,21.20
2022-08-05T04:31:08.412Z,20.90
2022-08-05T04:36:46.122Z,21.10
2022-08-05T04:39:21.014Z,21.00
2022-08-05T04:41:51.478Z,20.90
2022-08-05T04:44:21.209Z,21.10
2022-08-05T04:46:58.774Z,21.00
2022-08-05T04:49:38.337Z,21.00
2022-08-05T04:52:15.734Z,21.10
2022-08-05T04:54:56.903Z,21.20
2022-08-05T04:57:37.173Z,21.10
2022-08-05T05:00:06.870Z,21.10
2022-08-05T05:02:41.804Z,21.10
2022-08-05T05:05:16.987Z,20.80
2022-08-05T05:08:01.074Z,20.30
2022-08-05T05:10:33.207Z,20.60
2022-08-05T05:13:03.890Z,20.80
2022-08-05T05:15:56.452Z,20.90
2022-08-05T05:18:31.158Z,21.00
2022-08-05T05:21:03.083Z,20.90
2022-08-05T05:24:02.272Z,20.50
2022-08-05T05:26:28.637Z,20.10
2022-08-05T05:32:15.645Z,20.70
2022-08-05T05:34:54.888Z,20.40
2022-08-05T05:37:23.296Z,20.70
2022-08-05T05:40:31.453Z,20.70
2022-08-05T05:43:03.115Z,20.90
2022-08-05T05:45:31.629Z,21.00
2022-08-05T05:48:18.411Z,21.10
2022-08-05T05:50:56.889Z,21.30
2022-08-05T05:53:26.933Z,21.20
2022-08-05T05:56:00.468Z,20.80
2022-08-05T05:58:43.889Z,20.80
2022-08-05T06:01:15.297Z,20.90
2022-08-05T06:04:00.902Z,21.00
2022-08-05T06:06:33.213Z,21.10
2022-08-05T06:09:04.117Z,21.10
2022-08-05T06:11:32.809Z,21.00
2022-08-05T06:14:02.658Z,20.90
2022-08-05T06:16:36.747Z,20.80
2022-08-05T06:19:11.221Z,20.70
2022-08-05T06:21:49.421Z,20.90
2022-08-05T06:24:28.684Z,21.00
2022-08-05T06:26:59.844Z,20.90
2022-08-05T06:29:49.548Z,20.90
2022-08-05T06:32:30.807Z,21.10
2022-08-05T06:34:59.651Z,20.90
2022-08-05T06:37:58.113Z,21.10
2022-08-05T06:40:27.702Z,21.50
2022-08-05T06:42:57.505Z,21.40
2022-08-05T06:45:44.031Z,21.50
2022-08-05T06:48:54.609Z,21.50
2022-08-05T06:51:23.903Z,21.70
2022-08-05T06:53:58.167Z,21.90
2022-08-05T06:56:29.924Z,22.00
2022-08-05T06:59:38.628Z,22.20
2022-08-05T07:02:46.366Z,21.80
2022-08-05T07:05:24.591Z,21.70
2022-08-05T07:08:10.911Z,22.20
2022-08-05T07:10:53.453Z,22.30
2022-08-05T07:13:57.818Z,23.90
2022-08-05T07:18:01.401Z,24.40
2022-08-05T07:20:23.167Z,25.10
2022-08-05T07:22:29.120Z,25.10
2022-08-05T07:24:59.832Z,24.90
2022-08-05T07:27:58.798Z,24.80
2022-08-05T07:30:32.776Z,26.00
2022-08-05T07:33:09.276Z,25.30
2022-08-05T07:36:03.257Z,25.90
2022-08-05T07:38:43.712Z,26.50
2022-08-05T07:42:13.689Z,26.00
2022-08-05T07:44:18.805Z,24.00
2022-08-05T07:46:49.636Z,24.00
2022-08-05T07:49:20.652Z,24.00
2022-08-05T07:51:55.061Z,24.10
2022-08-05T07:57:52.178Z,24.00
2022-08-05T08:00:19.694Z,23.80
2022-08-05T08:03:14.209Z,23.00
2022-08-05T08:05:51.255Z,22.90
2022-08-05T08:08:23.172Z,22.60
2022-08-05T08:11:05.185Z,22.90
2022-08-05T08:13:42.724Z,22.70
2022-08-05T08:16:49.753Z,22.60
2022-08-05T08:19:07.310Z,22.30
2022-08-05T08:21:35.633Z,22.60
2022-08-05T08:24:13.766Z,22.90
2022-08-05T08:26:50.983Z,23.00
2022-08-05T08:29:29.612Z,23.00
2022-08-05T08:32:10.933Z,23.00
2022-08-05T08:34:44.391Z,22.90
2022-08-05T08:40:34.381Z,23.30
2022-08-05T08:45:16.518Z,23.30
2022-08-05T08:52:38.977Z,23.70
2022-08-05T08:56:03.731Z,23.60
2022-08-05T08:58:48.664Z,23.50
2022-08-05T09:01:18.912Z,23.30
2022-08-05T09:03:54.386Z,23.10
2022-08-05T09:06:29.328Z,22.80
2022-08-05T09:09:02.021Z,22.90
2022-08-05T09:11:51.613Z,23.30
2022-08-05T09:14:59.091Z,23.20
2022-08-05T09:17:42.282Z,23.10
2022-08-05T09:20:37.428Z,22.90
2022-08-05T09:23:43.655Z,22.90
2022-08-05T09:37:19.034Z,23.30
2022-08-05T09:40:57.912Z,23.80
2022-08-05T09:43:41.920Z,23.90
2022-08-05T09:46:27.889Z,24.10
2022-08-05T09:49:19.645Z,23.70
2022-08-05T09:52:01.724Z,23.60
2022-08-05T09:54:32.593Z,23.80
2022-08-05T09:57:01.795Z,23.40
2022-08-05T09:59:36.905Z,23.00
2022-08-05T10:02:58.247Z,23.60
2022-08-05T10:05:32.750Z,23.90
2022-08-05T10:12:31.120Z,23.80
2022-08-05T10:15:30.087Z,24.10
2022-08-05T10:18:24.692Z,24.00
2022-08-05T10:20:57.645Z,24.20
2022-08-05T10:23:58.775Z,23.90
2022-08-05T10:26:33.878Z,24.10
2022-08-05T10:31:21.102Z,24.80
2022-08-05T10:32:54.811Z,24.70
2022-08-05T10:35:16.670Z,25.40
2022-08-05T10:37:48.095Z,24.40
2022-08-05T10:40:43.472Z,25.00
2022-08-05T10:43:36.650Z,24.60
2022-08-05T10:46:08.531Z,24.40
2022-08-05T10:48:57.396Z,24.00
2022-08-05T10:52:15.507Z,24.60
2022-08-05T10:58:50.615Z,25.30
2022-08-05T11:02:03.658Z,24.70
2022-08-05T11:04:22.671Z,24.50
2022-08-05T11:07:08.969Z,24.60
2022-08-05T11:10:04.069Z,25.00
2022-08-05T11:12:54.235Z,25.50
2022-08-05T11:16:00.276Z,25.00
2022-08-05T11:18:32.478Z,25.30
2022-08-05T11:21:52.818Z,25.00
2022-08-05T11:24:30.206Z,24.80
2022-08-05T11:27:51.387Z,25.30
2022-08-05T11:30:31.273Z,25.40
2022-08-05T11:33:46.084Z,25.80
2022-08-05T11:36:34.525Z,25.90
2022-08-05T11:39:39.331Z,26.00
2022-08-05T11:42:28.319Z,26.30
2022-08-05T11:45:14.188Z,26.40
2022-08-05T11:47:54.826Z,26.20
2022-08-05T11:53:49.145Z,26.40
2022-08-05T11:59:49.459Z,25.80
2022-08-05T12:13:00.281Z,25.70
2022-08-05T12:15:40.165Z,25.40
2022-08-05T12:18:11.029Z,25.20
2022-08-05T12:20:40.730Z,25.30
2022-08-05T12:23:11.274Z,25.40
2022-08-05T12:25:57.251Z,25.30
2022-08-05T12:28:59.865Z,25.60
2022-08-05T12:34:54.590Z,26.00
2022-08-05T12:37:32.357Z,26.30
2022-08-05T12:40:03.582Z,26.00
2022-08-05T12:42:40.867Z,25.70
2022-08-05T12:45:14.449Z,26.20
2022-08-05T12:48:37.728Z,25.90
2022-08-05T12:51:21.643Z,25.60
2022-08-05T12:54:04.701Z,25.90
2022-08-05T12:56:51.028Z,25.80
2022-08-05T12:59:46.823Z,26.00
2022-08-05T13:02:15.288Z,26.00
2022-08-05T13:04:52.561Z,25.70
2022-08-05T13:08:01.674Z,26.10
2022-08-05T13:11:05.388Z,26.10
2022-08-05T13:17:46.191Z,25.60
2022-08-05T13:20:25.285Z,25.50
2022-08-05T13:25:51.855Z,25.00
2022-08-05T13:28:15.368Z,25.30
2022-08-05T13:30:51.217Z,25.30
2022-08-05T13:34:21.550Z,25.30
2022-08-05T13:40:15.192Z,25.30
2022-08-05T13:43:13.907Z,25.40
2022-08-05T13:45:55.470Z,25.40
2022-08-05T13:48:58.070Z,25.30
2022-08-05T13:55:11.018Z,24.90
2022-08-05T13:58:00.446Z,25.30
2022-08-05T14:00:30.657Z,25.50
2022-08-05T14:03:18.509Z,25.90
2022-08-05T14:16:30.470Z,26.90
2022-08-05T14:25:30.106Z,25.70
2022-08-05T14:28:05.210Z,25.60
2022-08-05T14:30:34.559Z,25.40
2022-08-05T14:33:16.811Z,25.30
2022-08-05T14:35:52.283Z,25.30
2022-08-05T14:38:32.739Z,25.40
2022-08-05T14:41:29.586Z,25.20
2022-08-05T14:44:10.028Z,25.10
2022-08-05T14:46:48.981Z,25.00
2022-08-05T14:49:59.722Z,23.90
2022-08-05T14:52:51.565Z,22.90
2022-08-05T14:55:20.495Z,22.50
2022-08-05T14:57:55.962Z,22.20
2022-08-05T15:00:58.403Z,22.00
2022-08-05T15:06:41.851Z,21.90
2022-08-05T15:09:52.750Z,21.70
2022-08-05T15:12:16.805Z,21.50
2022-08-05T15:14:50.750Z,21.50
2022-08-05T15:17:46.920Z,21.30
2022-08-05T15:20:46.610Z,21.20
2022-08-05T15:23:43.708Z,21.10
2022-08-05T15:26:32.198Z,21.20
2022-08-05T15:29:12.382Z,21.50
2022-08-05T15:32:04.085Z,21.40
2022-08-05T15:34:35.051Z,21.70
2022-08-05T15:37:06.955Z,21.60
2022-08-05T15:41:02.956Z,21.80
2022-08-05T15:43:10.961Z,21.60
2022-08-05T15:46:00.094Z,21.90
2022-08-05T15:48:31.545Z,21.60
2022-08-05T15:52:10.040Z,21.60
2022-08-05T15:55:20.180Z,21.30
2022-08-05T15:57:55.985Z,21.40
2022-08-05T16:00:29.309Z,21.20
2022-08-05T16:03:12.163Z,21.00
2022-08-05T16:05:43.203Z,21.10
2022-08-05T16:08:19.539Z,21.30
2022-08-05T16:11:04.070Z,20.80
2022-08-05T16:20:26.189Z,20.70
2022-08-05T16:22:57.415Z,20.80
2022-08-05T16:25:34.123Z,20.60
2022-08-05T16:28:10.507Z,20.50
2022-08-05T16:30:39.559Z,20.40
2022-08-05T16:33:09.804Z,20.60
2022-08-05T16:35:43.078Z,20.50
2022-08-05T16:38:25.372Z,20.60
2022-08-05T16:42:13.972Z,20.50
2022-08-05T16:44:19.466Z,20.40
2022-08-05T16:46:55.684Z,20.60
2022-08-05T16:52:36.094Z,20.50
2022-08-05T16:55:09.132Z,20.60
2022-08-05T16:57:59.877Z,20.60
2022-08-05T17:00:57.219Z,20.20
2022-08-05T17:03:42.056Z,20.10
2022-08-05T17:10:13.032Z,20.00
2022-08-05T17:12:52.322Z,20.00
2022-08-05T17:15:48.833Z,20.10
2022-08-05T17:18:20.737Z,20.20
2022-08-05T17:20:49.015Z,20.20
2022-08-05T17:24:05.572Z,20.20
2022-08-05T17:26:09.226Z,20.00
2022-08-05T17:28:43.391Z,20.00
2022-08-05T17:38:04.979Z,20.20
2022-08-05T17:43:50.528Z,20.30
2022-08-05T17:46:23.988Z,20.30
2022-08-05T17:49:03.214Z,20.20
2022-08-05T17:51:54.141Z,20.20
2022-08-05T17:54:37.931Z,20.10
2022-08-05T17:57:12.075Z,20.20
2022-08-05T18:00:05.159Z,20.10
2022-08-05T18:02:54.032Z,20.30
2022-08-05T18:05:35.459Z,20.40
2022-08-05T18:08:13.262Z,20.40
2022-08-05T18:18:00.201Z,20.00
2022-08-05T18:20:53.550Z,20.00
2022-08-05T18:26:53.291Z,20.00
2022-08-05T18:29:41.168Z,19.90
2022-08-05T18:32:12.946Z,19.90
2022-08-05T18:35:49.576Z,19.90
2022-08-05T18:38:41.898Z,19.80
2022-08-05T18:41:54.957Z,19.80
2022-08-05T18:44:05.474Z,19.80
2022-08-05T18:46:34.263Z,19.80
2022-08-05T18:49:30.449Z,19.80
2022-08-05T18:52:16.708Z,19.60
2022-08-05T18:54:47.172Z,19.60
2022-08-05T18:57:24.016Z,19.70
2022-08-05T19:00:02.384Z,19.60
2022-08-05T19:02:39.439Z,19.50
2022-08-05T19:06:05.708Z,19.50
2022-08-05T19:08:03.199Z,19.40
2022-08-05T19:10:35.075Z,19.50
2022-08-05T19:13:06.395Z,19.30
2022-08-05T19:15:58.876Z,19.30
2022-08-05T19:19:03.160Z,19.20
2022-08-05T19:25:39.080Z,19.00
2022-08-05T19:28:14.370Z,19.00
2022-08-05T19:30:49.560Z,18.90
2022-08-05T19:33:35.534Z,18.90
2022-08-05T19:36:14.957Z,18.80
2022-08-05T19:38:46.176Z,18.80
2022-08-05T19:41:16.910Z,18.70
2022-08-05T19:44:05.476Z,18.70
2022-08-05T19:46:39.451Z,18.70
2022-08-05T19:49:12.592Z,18.70
2022-08-05T19:52:08.740Z,18.60
2022-08-05T19:54:43.548Z,18.60
2022-08-05T19:57:11.746Z,18.50
2022-08-05T20:00:00.784Z,18.50
2022-08-05T20:02:33.622Z,18.40
2022-08-05T20:05:05.007Z,18.40
2022-08-05T20:07:48.215Z,18.40
2022-08-05T20:10:22.191Z,18.40
2022-08-05T20:12:56.426Z,18.30
2022-08-05T20:15:51.796Z,18.20
2022-08-05T20:18:33.733Z,18.20
2022-08-05T20:21:12.632Z,18.20
2022-08-05T20:23:50.926Z,18.20
2022-08-05T20:29:27.632Z,18.20
2022-08-05T20:31:58.397Z,18.10
2022-08-05T20:34:29.552Z,18.00
2022-08-05T20:36:57.809Z,18.10
2022-08-05T20:39:35.428Z,18.10
2022-08-05T20:42:04.671Z,18.00
2022-08-05T20:44:37.775Z,18.00
2022-08-05T20:47:08.399Z,18.00
2022-08-05T20:49:40.182Z,17.90
2022-08-05T20:52:14.669Z,17.90
2022-08-05T20:54:59.349Z,17.90
2022-08-05T20:57:43.925Z,17.90
2022-08-05T21:00:40.961Z,18.00
2022-08-05T21:03:13.248Z,18.00
2022-08-05T21:05:54.233Z,17.90
2022-08-05T21:08:32.849Z,17.90
2022-08-05T21:11:10.029Z,17.80
2022-08-05T21:13:48.471Z,17.70
2022-08-05T21:16:29.143Z,17.80
2022-08-05T21:19:06.812Z,17.70
2022-08-05T21:22:31.444Z,17.60
2022-08-05T21:25:06.539Z,17.50
2022-08-05T21:27:43.125Z,17.50
2022-08-05T21:30:17.314Z,17.40
2022-08-05T21:32:45.814Z,17.30
2022-08-05T21:35:30.254Z,17.20
2022-08-05T21:38:17.820Z,17.40
2022-08-05T21:46:34.631Z,17.30
2022-08-05T21:49:48.363Z,17.20
2022-08-05T21:52:22.058Z,17.20
2022-08-05T21:58:31.858Z,17.10
2022-08-05T22:01:30.742Z,17.10
2022-08-05T22:04:13.771Z,17.10
2022-08-05T22:06:50.404Z,17.00
2022-08-05T22:09:23.335Z,17.00
2022-08-05T22:12:11.977Z,17.00
2022-08-05T22:14:46.185Z,16.90
2022-08-05T22:17:14.721Z,16.90
2022-08-05T22:20:01.963Z,16.80
2022-08-05T22:22:31.977Z,16.80
2022-08-05T22:25:24.042Z,16.70
2022-08-05T22:28:04.920Z,16.80
2022-08-05T22:30:44.097Z,16.80
2022-08-05T22:33:56.912Z,16.70
2022-08-05T22:43:08.237Z,16.90
2022-08-05T22:45:37.476Z,16.90
2022-08-05T22:48:10.424Z,16.90
2022-08-05T22:50:56.219Z,16.80
2022-08-05T22:53:24.960Z,16.90
2022-08-05T22:56:04.166Z,16.90
2022-08-05T22:58:38.223Z,16.90
2022-08-05T23:01:12.247Z,16.90
2022-08-05T23:03:59.023Z,16.90
2022-08-05T23:06:27.811Z,16.80
2022-08-05T23:08:57.294Z,16.90
2022-08-05T23:11:46.697Z,16.80
2022-08-05T23:14:22.532Z,16.80
2022-08-05T23:17:09.047Z,16.70
2022-08-05T23:19:51.086Z,16.70
2022-08-05T23:22:27.892Z,16.70
2022-08-05T23:24:56.566Z,16.60
2022-08-05T23:27:31.253Z,16.60
2022-08-05T23:30:11.548Z,16.60
2022-08-05T23:32:40.702Z,16.50
2022-08-05T23:35:14.892Z,16.50
2022-08-05T23:37:46.632Z,16.40
2022-08-05T23:40:17.107Z,16.50
2022-08-05T23:42:55.212Z,16.40
2022-08-05T23:45:23.927Z,16.40
2022-08-05T23:47:53.893Z,16.30
2022-08-05T23:50:32.236Z,16.30
2022-08-05T23:53:01.356Z,16.30
2022-08-05T23:55:32.060Z,16.30
2022-08-05T23:58:00.911Z,16.30
